createdAt,value
2019-05-26T00:03:20.941Z,97.60
2019-05-26T00:09:22.465Z,98.10
2019-05-26T00:15:24.082Z,98.10
2019-05-26T00:21:26.131Z,98.10
2019-05-26T00:27:27.913Z,98.10
2019-05-26T00:33:29.498Z,97.90
2019-05-26T00:39:31.482Z,97.80
2019-05-26T00:45:35.068Z,97.90
2019-05-26T00:51:36.944Z,98.00
2019-05-26T00:57:38.807Z,98.00
2019-05-26T01:03:40.447Z,97.90
2019-05-26T01:09:42.225Z,98.00
2019-05-26T01:15:44.137Z,97.90
2019-05-26T01:21:45.826Z,98.00
2019-05-26T01:27:47.449Z,98.30
2019-05-26T01:33:49.446Z,98.30
2019-05-26T01:39:51.053Z,98.80
2019-05-26T01:45:52.629Z,98.90
2019-05-26T01:51:54.208Z,98.70
2019-05-26T01:57:55.779Z,98.80
2019-05-26T02:03:57.567Z,98.60
2019-05-26T02:09:59.192Z,98.50
2019-05-26T02:16:00.872Z,98.90
2019-05-26T02:22:03.730Z,98.70
2019-05-26T02:28:05.740Z,98.70
2019-05-26T02:34:07.485Z,98.90
2019-05-26T02:40:16.578Z,98.90
2019-05-26T02:46:19.095Z,99.10
2019-05-26T02:52:20.782Z,99.10
2019-05-26T02:58:22.668Z,99.20
2019-05-26T03:04:24.703Z,99.00
2019-05-26T03:10:26.353Z,99.10
2019-05-26T03:16:30.088Z,98.90
2019-05-26T03:22:32.599Z,99.00
2019-05-26T03:28:34.160Z,99.10
2019-05-26T03:34:35.852Z,99.20
2019-05-26T03:40:37.367Z,99.30
2019-05-26T03:46:41.190Z,99.20
2019-05-26T03:52:42.772Z,99.20
2019-05-26T03:58:44.340Z,99.10
2019-05-26T04:04:45.864Z,99.00
2019-05-26T04:10:47.558Z,98.90
2019-05-26T04:16:49.385Z,98.80
2019-05-26T04:22:51.039Z,98.50
2019-05-26T04:28:52.714Z,98.10
2019-05-26T04:34:54.200Z,97.80
2019-05-26T04:40:58.260Z,97.10
2019-05-26T04:46:59.949Z,96.90
2019-05-26T04:53:06.612Z,96.30
2019-05-26T04:59:04.688Z,96.00
2019-05-26T05:05:06.880Z,95.60
2019-05-26T05:11:08.352Z,94.80
2019-05-26T05:17:09.901Z,95.20
2019-05-26T05:23:11.498Z,95.00
2019-05-26T05:29:12.968Z,93.90
2019-05-26T05:35:15.089Z,92.40
2019-05-26T05:41:16.666Z,92.80
2019-05-26T05:47:18.124Z,92.30
2019-05-26T05:53:19.639Z,90.70
2019-05-26T05:59:21.413Z,89.90
2019-05-26T06:05:22.899Z,88.80
2019-05-26T06:11:24.418Z,86.20
2019-05-26T06:17:26.165Z,81.90
2019-05-26T06:23:28.510Z,84.60
2019-05-26T06:29:30.491Z,83.40
2019-05-26T06:35:32.944Z,82.60
2019-05-26T06:41:34.762Z,83.00
2019-05-26T06:47:36.378Z,81.40
2019-05-26T06:53:38.025Z,81.20
2019-05-26T06:59:39.706Z,79.80
2019-05-26T07:05:41.286Z,78.90
2019-05-26T07:11:55.731Z,78.50
2019-05-26T07:17:46.328Z,77.60
2019-05-26T07:23:48.146Z,78.20
2019-05-26T07:29:49.940Z,76.00
2019-05-26T07:35:51.377Z,75.90
2019-05-26T07:42:09.174Z,73.40
2019-05-26T07:47:57.465Z,72.40
2019-05-26T07:53:58.942Z,71.60
2019-05-26T08:00:01.369Z,71.10
2019-05-26T08:06:04.251Z,70.40
2019-05-26T08:12:05.851Z,70.80
2019-05-26T08:18:07.524Z,69.80
2019-05-26T08:30:49.342Z,68.10
2019-05-26T08:36:50.869Z,67.70
2019-05-26T08:42:52.467Z,69.20
2019-05-26T08:48:53.949Z,67.40
2019-05-26T08:55:00.415Z,64.70
2019-05-26T09:01:10.309Z,66.10
2019-05-26T09:07:11.878Z,63.40
2019-05-26T09:13:13.725Z,62.90
2019-05-26T09:19:17.824Z,61.70
2019-05-26T09:25:19.992Z,59.40
2019-05-26T09:31:21.719Z,57.20
2019-05-26T09:37:23.521Z,58.80
2019-05-26T09:43:25.074Z,55.70
2019-05-26T09:49:26.611Z,54.60
2019-05-26T09:55:28.310Z,55.30
2019-05-26T10:01:29.781Z,55.60
2019-05-26T10:07:31.599Z,56.90
2019-05-26T10:13:33.296Z,54.60
2019-05-26T10:19:34.823Z,55.60
2019-05-26T10:25:36.392Z,53.00
2019-05-26T10:31:37.995Z,54.70
2019-05-26T10:37:39.452Z,55.40
2019-05-26T10:43:47.323Z,56.00
2019-05-26T10:49:44.524Z,54.70
2019-05-26T10:55:46.062Z,55.30
2019-05-26T11:01:47.582Z,53.20
2019-05-26T11:07:49.096Z,53.20
2019-05-26T11:14:02.279Z,53.60
2019-05-26T11:19:54.005Z,53.00
2019-05-26T11:25:55.475Z,51.40
2019-05-26T11:31:57.057Z,50.10
2019-05-26T11:37:58.818Z,46.10
2019-05-26T11:44:00.457Z,46.70
2019-05-26T11:50:06.687Z,47.30
2019-05-26T11:56:08.219Z,44.90
2019-05-26T12:02:09.773Z,44.70
2019-05-26T12:08:11.352Z,45.00
2019-05-26T12:14:12.849Z,47.00
2019-05-26T12:20:14.628Z,49.80
2019-05-26T12:26:16.360Z,52.50
2019-05-26T12:32:18.221Z,52.50
2019-05-26T12:38:19.689Z,56.60
2019-05-26T12:44:21.698Z,54.30
2019-05-26T12:50:23.612Z,53.30
2019-05-26T12:56:25.297Z,54.50
2019-05-26T13:02:26.962Z,54.40
2019-05-26T13:08:28.565Z,54.60
2019-05-26T13:14:31.707Z,56.10
2019-05-26T13:20:33.187Z,55.60
2019-05-26T13:26:35.672Z,58.00
2019-05-26T13:32:37.551Z,55.50
2019-05-26T13:38:39.025Z,56.50
2019-05-26T13:44:40.621Z,56.60
2019-05-26T13:50:42.448Z,55.40
2019-05-26T13:56:44.210Z,55.40
2019-05-26T14:02:46.627Z,55.50
2019-05-26T14:08:48.995Z,53.10
2019-05-26T14:14:52.021Z,52.30
2019-05-26T14:20:53.993Z,53.40
2019-05-26T14:26:55.697Z,52.40
2019-05-26T14:32:59.513Z,53.00
2019-05-26T14:39:00.919Z,51.70
2019-05-26T14:45:05.299Z,50.40
2019-05-26T14:51:06.959Z,51.50
2019-05-26T14:57:08.544Z,50.60
2019-05-26T15:03:10.050Z,50.80
2019-05-26T15:09:24.880Z,51.10
2019-05-26T15:15:20.381Z,51.00
2019-05-26T15:21:23.259Z,52.20
2019-05-26T15:27:24.859Z,48.70
2019-05-26T15:33:26.462Z,50.80
2019-05-26T15:39:28.234Z,50.90
2019-05-26T15:45:29.850Z,52.60
2019-05-26T15:51:31.433Z,51.90
2019-05-26T15:57:33.126Z,51.20
2019-05-26T16:03:34.675Z,51.60
2019-05-26T16:09:36.330Z,53.20
2019-05-26T16:15:42.736Z,52.60
2019-05-26T16:21:44.330Z,52.70
2019-05-26T16:27:50.268Z,54.50
2019-05-26T16:34:01.162Z,53.70
2019-05-26T16:40:05.997Z,53.40
2019-05-26T16:46:10.091Z,53.30
2019-05-26T16:52:14.910Z,54.70
2019-05-26T16:58:16.492Z,55.30
2019-05-26T17:04:18.070Z,54.60
2019-05-26T17:10:19.833Z,54.30
2019-05-26T17:16:21.353Z,54.40
2019-05-26T17:22:23.902Z,55.20
2019-05-26T17:28:25.533Z,56.70
2019-05-26T17:34:28.153Z,57.40
2019-05-26T17:40:29.808Z,57.90
2019-05-26T17:46:33.793Z,58.10
2019-05-26T17:52:35.528Z,58.70
2019-05-26T17:58:37.369Z,58.40
2019-05-26T18:04:40.083Z,59.70
2019-05-26T18:10:41.990Z,61.60
2019-05-26T18:16:43.595Z,62.80
2019-05-26T18:22:45.142Z,63.40
2019-05-26T18:28:46.962Z,63.70
2019-05-26T18:34:48.759Z,64.80
2019-05-26T18:40:52.402Z,64.30
2019-05-26T18:46:54.041Z,63.60
2019-05-26T18:52:55.589Z,64.60
2019-05-26T18:58:58.149Z,63.90
2019-05-26T19:04:59.679Z,64.90
2019-05-26T19:11:03.530Z,65.40
2019-05-26T19:17:05.331Z,66.00
2019-05-26T19:23:07.721Z,65.90
2019-05-26T19:29:09.279Z,65.70
2019-05-26T19:35:11.375Z,66.40
2019-05-26T19:41:15.115Z,65.10
2019-05-26T19:47:16.702Z,66.00
2019-05-26T19:53:18.260Z,66.20
2019-05-26T19:59:21.723Z,66.40
2019-05-26T20:05:23.395Z,66.80
2019-05-26T20:11:25.524Z,66.40
2019-05-26T20:17:27.051Z,67.50
2019-05-26T20:23:28.662Z,67.20
2019-05-26T20:29:30.108Z,67.90
2019-05-26T20:35:32.710Z,68.30
2019-05-26T20:41:34.423Z,68.30
2019-05-26T20:47:36.412Z,67.90
2019-05-26T20:53:40.494Z,67.70
2019-05-26T20:59:41.257Z,67.60
2019-05-26T21:05:44.235Z,68.30
2019-05-26T21:11:45.886Z,68.30
2019-05-26T21:17:47.554Z,68.30
2019-05-26T21:23:49.065Z,68.40
2019-05-26T21:29:50.568Z,68.40
2019-05-26T21:35:52.586Z,69.10
2019-05-26T21:41:54.880Z,69.10
2019-05-26T21:47:56.739Z,69.30
2019-05-26T21:54:01.233Z,69.80
2019-05-26T22:00:10.335Z,69.40
2019-05-26T22:06:13.768Z,70.00
2019-05-26T22:14:44.912Z,69.70
2019-05-26T22:20:46.350Z,70.60
2019-05-26T22:26:47.871Z,70.60
2019-05-26T22:32:49.335Z,70.90
2019-05-26T22:38:50.990Z,71.60
2019-05-26T22:44:52.982Z,72.00
2019-05-26T22:50:56.196Z,72.10
2019-05-26T22:56:57.947Z,73.60
2019-05-26T23:02:59.547Z,72.70
2019-05-26T23:09:01.130Z,73.80
2019-05-26T23:15:06.201Z,73.10
2019-05-26T23:21:07.987Z,73.70
2019-05-26T23:27:10.694Z,73.50
2019-05-26T23:33:12.207Z,73.90
2019-05-26T23:39:13.790Z,74.20
2019-05-26T23:45:15.244Z,73.40
2019-05-26T23:51:16.776Z,74.00
2019-05-26T23:57:18.234Z,74.60
